Startpagina
METAR-TAF:

METAR-TAF

Vliegvelden :

Georgetown, Ascension

breedte: 07-58S, lengte: 014-24W, hoogte: 86 m

Actueel weer

Dit bericht is 1 uur en het 19 minuten geleden gemaakt, om 02:50 UTC
Wind 11 kt uit het zuidoosten
Temperatuur 26°C
Vochtigheid 74%
Druk 1012 hPa
Zicht 10 km of meer
Weinig wolken op 2100 ft

METAR: FHAW 240250Z 13011KT 9999 FEW021 26/21 Q1012 BLU

Tijdstip: 04:09 (04:09 UTC)

Verwachting

Dit bericht is 2 uur en het 39 minuten geleden gemaakt, om 01:30 UTC
Verwachting geldig van 24 om 03 UTC tot 24 om 21 UTC
Wind 12 kt uit het zuidoosten
Zicht 10 km of meer
Weinig wolken op 2300 ft
Kans 30% :
Tijdelijke
van 24 om 12 UTC tot 24 om 21 UTC
Verspreide wolken op 1600 ft

TAF: FHAW 240130Z 2403/2421 14012KT 9999 FEW023 PROB30 TEMPO 2412/2421 SCT016

Waarnemingen en weersverwachtingen van meer dan 4000 vliegvelden (METAR en TAF).

De beschikbare stations zijn de gele en rode punten op de kaart.

Ga met uw muis naar het station om de naam te zien.

Klik dan om waarnemingen en weersverwachtingen te zien.

kaart wijzigen: klik op de groene knoppen met een zwart kruis om in te zoomen, op de groene knop met een streepje om uit te zoomen of op de groene pijlen voor aangrenzende kaarten.


METAR-TAF: